Time;durP1;ratioP1;P1;durP2;ratioP2;P2;SDS_P1;SDS_P2;PMS_P1;PMS_P2;Temp;Humidity;BMP_temperature;BMP_pressure;BME280_temperature;BME280_humidity;BME280_pressure;Samples;Min_cycle;Max_cycle;Signal;HPM_P1;HPM_P2
2023/11/19 00:00:11;;;;;;;0.40;0.40;;;7.10;99.90;;;;;;5097935;28;20432;-84
2023/11/19 00:02:39;;;;;;;0.90;0.40;;;7.20;99.90;;;;;;5097599;28;20475;-84
2023/11/19 00:05:08;;;;;;;0.67;0.67;;;7.30;99.90;;;;;;5097715;28;20420;-83
2023/11/19 00:07:35;;;;;;;0.87;0.70;;;7.30;99.90;;;;;;5097634;28;20455;-83
2023/11/19 00:10:10;;;;;;;0.73;0.73;;;7.40;99.90;;;;;;5097074;28;20476;-83
2023/11/19 00:12:37;;;;;;;0.87;0.80;;;7.40;99.90;;;;;;5097150;28;20462;-83
2023/11/19 00:15:05;;;;;;;0.40;0.40;;;7.50;99.90;;;;;;5097120;28;20446;-83
2023/11/19 00:17:32;;;;;;;0.50;0.40;;;7.50;99.90;;;;;;5097304;28;20439;-83
2023/11/19 00:20:00;;;;;;;0.77;0.43;;;7.50;99.90;;;;;;5097110;28;20439;-83
2023/11/19 00:22:26;;;;;;;0.57;0.57;;;7.50;99.90;;;;;;5096963;28;20840;-83
2023/11/19 00:24:53;;;;;;;0.73;0.40;;;7.50;99.90;;;;;;5096528;28;20448;-83
2023/11/19 00:27:20;;;;;;;0.30;0.30;;;7.50;99.90;;;;;;5097112;28;20451;-83
2023/11/19 00:29:47;;;;;;;0.50;0.50;;;7.60;99.90;;;;;;5096406;28;20583;-83
2023/11/19 00:32:14;;;;;;;0.50;0.50;;;7.60;99.90;;;;;;5096504;28;20483;-83
2023/11/19 00:34:42;;;;;;;0.40;0.40;;;7.60;99.90;;;;;;5096594;28;21035;-83
2023/11/19 00:37:10;;;;;;;0.30;0.30;;;7.60;99.90;;;;;;5096329;28;20428;-83
2023/11/19 00:39:36;;;;;;;0.50;0.30;;;7.70;99.90;;;;;;5096703;28;20440;-83
2023/11/19 00:42:05;;;;;;;0.40;0.30;;;7.70;99.90;;;;;;5096311;28;20456;-83
2023/11/19 00:44:31;;;;;;;0.40;0.40;;;7.80;99.90;;;;;;5096470;28;20501;-83
2023/11/19 00:46:59;;;;;;;0.40;0.40;;;7.80;99.90;;;;;;5096499;28;20444;-83
2023/11/19 00:49:26;;;;;;;1.13;0.60;;;7.90;99.90;;;;;;5096356;28;20486;-83
2023/11/19 00:51:53;;;;;;;0.40;0.40;;;7.90;99.90;;;;;;5096467;28;20468;-83
2023/11/19 00:54:22;;;;;;;0.60;0.40;;;8.00;99.90;;;;;;5096909;28;20439;-83
2023/11/19 00:56:49;;;;;;;0.47;0.30;;;7.90;99.90;;;;;;5096385;28;20452;-83
2023/11/19 00:59:15;;;;;;;0.33;0.30;;;8.00;99.90;;;;;;5095935;28;20954;-83
2023/11/19 01:01:42;;;;;;;0.40;0.30;;;8.10;99.90;;;;;;5096071;28;20497;-84
2023/11/19 01:04:09;;;;;;;0.30;0.30;;;8.00;99.90;;;;;;5095925;28;20962;-83
2023/11/19 01:06:36;;;;;;;0.30;0.30;;;8.10;99.90;;;;;;5096385;28;20871;-81
2023/11/19 01:09:03;;;;;;;0.40;0.37;;;8.20;99.90;;;;;;5095775;28;20503;-80
2023/11/19 01:11:31;;;;;;;0.30;0.30;;;8.10;99.90;;;;;;5095885;28;20448;-81
2023/11/19 01:13:58;;;;;;;0.30;0.30;;;8.20;99.90;;;;;;5096356;28;20448;-82
2023/11/19 01:16:24;;;;;;;9.13;0.77;;;8.20;99.90;;;;;;5095720;28;20451;-81
2023/11/19 01:18:51;;;;;;;0.40;0.30;;;8.30;99.90;;;;;;5095902;28;20441;-81
2023/11/19 01:21:18;;;;;;;0.30;0.30;;;8.30;99.90;;;;;;5095603;28;20924;-82
2023/11/19 01:23:45;;;;;;;0.40;0.30;;;8.30;99.90;;;;;;5095732;28;20547;-82
2023/11/19 01:26:13;;;;;;;0.50;0.50;;;8.40;99.90;;;;;;5108727;28;20434;-82
2023/11/19 01:28:44;;;;;;;0.40;0.33;;;8.40;99.90;;;;;;5109800;28;20431;-80
2023/11/19 01:31:12;;;;;;;2.73;0.40;;;8.40;99.90;;;;;;5098027;28;20439;-81
2023/11/19 01:33:39;;;;;;;0.40;0.30;;;8.50;99.90;;;;;;5096869;28;20483;-81
2023/11/19 01:36:07;;;;;;;0.40;0.40;;;8.40;99.90;;;;;;5095834;28;20532;-81
2023/11/19 01:38:34;;;;;;;0.30;0.30;;;8.40;99.90;;;;;;5096301;28;20535;-81
2023/11/19 01:41:03;;;;;;;0.47;0.40;;;8.50;99.90;;;;;;5095207;28;20440;-82
2023/11/19 01:43:37;;;;;;;0.37;0.30;;;8.50;99.90;;;;;;5095311;28;20470;-81
2023/11/19 01:46:07;;;;;;;0.40;0.30;;;8.60;99.90;;;;;;5095351;28;20439;-81
2023/11/19 01:48:36;;;;;;;0.50;0.40;;;8.60;99.90;;;;;;5094791;28;20428;-81
2023/11/19 01:51:03;;;;;;;0.30;0.30;;;8.60;99.90;;;;;;5095201;28;20478;-81
2023/11/19 01:53:31;;;;;;;0.40;0.30;;;8.60;99.90;;;;;;5094862;28;20452;-82
2023/11/19 01:55:59;;;;;;;0.60;0.30;;;8.80;99.90;;;;;;5094964;28;20796;-82
2023/11/19 01:58:26;;;;;;;0.30;0.30;;;8.70;99.90;;;;;;5095023;28;20451;-81
2023/11/19 02:00:52;;;;;;;0.30;0.30;;;8.70;99.90;;;;;;5094975;28;20436;-81
2023/11/19 02:03:22;;;;;;;0.30;0.20;;;8.80;99.90;;;;;;5094843;28;20822;-81
2023/11/19 02:05:50;;;;;;;0.30;0.20;;;8.70;99.90;;;;;;5094879;28;20436;-82
2023/11/19 02:08:17;;;;;;;0.30;0.30;;;8.70;99.90;;;;;;5094847;28;20448;-81
2023/11/19 02:10:44;;;;;;;0.30;0.30;;;8.80;99.90;;;;;;5094539;28;20832;-81
2023/11/19 02:13:13;;;;;;;0.30;0.30;;;8.90;99.90;;;;;;5094486;28;20479;-81
2023/11/19 02:15:40;;;;;;;0.33;0.30;;;8.90;99.90;;;;;;5094832;28;20497;-82
2023/11/19 02:18:22;;;;;;;0.30;0.20;;;8.90;99.90;;;;;;5094670;28;20444;-82
2023/11/19 02:20:49;;;;;;;0.40;0.30;;;8.80;99.90;;;;;;5094385;28;20429;-82
2023/11/19 02:23:16;;;;;;;0.30;0.30;;;8.90;99.90;;;;;;5094560;28;20499;-81
2023/11/19 02:25:46;;;;;;;0.40;0.40;;;8.90;99.90;;;;;;5094454;28;20432;-81
2023/11/19 02:28:15;;;;;;;0.30;0.30;;;8.90;99.90;;;;;;5094656;28;20431;-81
2023/11/19 02:30:43;;;;;;;0.30;0.30;;;8.90;99.90;;;;;;5094450;28;20845;-81
2023/11/19 02:33:09;;;;;;;0.70;0.30;;;8.90;99.90;;;;;;5094004;28;20484;-81
2023/11/19 02:35:36;;;;;;;0.33;0.30;;;9.00;99.90;;;;;;5094482;28;20447;-82
2023/11/19 02:38:03;;;;;;;0.30;0.30;;;9.00;99.90;;;;;;5094427;28;20433;-81
2023/11/19 02:40:30;;;;;;;0.40;0.40;;;9.00;99.90;;;;;;5094508;28;20432;-81
2023/11/19 02:42:57;;;;;;;0.30;0.20;;;9.00;99.90;;;;;;5094207;28;20464;-82
2023/11/19 02:45:27;;;;;;;0.30;0.20;;;9.00;99.90;;;;;;5093940;28;20447;-82
2023/11/19 02:47:54;;;;;;;0.50;0.30;;;9.00;99.90;;;;;;5094274;28;20440;-81
2023/11/19 02:50:25;;;;;;;0.30;0.30;;;9.10;99.90;;;;;;5094051;28;20494;-82
2023/11/19 02:52:56;;;;;;;0.30;0.20;;;9.00;99.90;;;;;;5093908;28;20551;-81
2023/11/19 02:55:23;;;;;;;0.30;0.30;;;9.10;99.90;;;;;;5094088;28;20436;-82
2023/11/19 02:57:51;;;;;;;0.60;0.30;;;9.10;99.90;;;;;;5093938;28;20858;-81
2023/11/19 03:00:23;;;;;;;0.40;0.30;;;9.10;99.90;;;;;;5094001;28;20436;-82
2023/11/19 03:02:59;;;;;;;0.33;0.30;;;9.10;99.90;;;;;;5094111;28;20872;-82
2023/11/19 03:05:29;;;;;;;2.10;0.40;;;9.10;99.90;;;;;;5093736;28;21042;-82
2023/11/19 03:07:56;;;;;;;0.40;0.30;;;9.10;99.90;;;;;;5094001;28;20519;-82
2023/11/19 03:10:23;;;;;;;0.30;0.30;;;9.20;99.90;;;;;;5093895;28;20490;-81
2023/11/19 03:12:50;;;;;;;0.30;0.30;;;9.20;99.90;;;;;;5093712;28;20472;-82
2023/11/19 03:15:17;;;;;;;0.30;0.20;;;9.20;99.90;;;;;;5093794;28;20455;-82
2023/11/19 03:17:44;;;;;;;0.30;0.30;;;9.20;99.90;;;;;;5093794;28;20444;-82
2023/11/19 03:20:15;;;;;;;0.30;0.20;;;9.20;99.90;;;;;;5093706;28;20432;-81
2023/11/19 03:22:42;;;;;;;0.30;0.30;;;9.30;99.90;;;;;;5093308;28;20464;-82
2023/11/19 03:25:09;;;;;;;0.30;0.30;;;9.30;99.90;;;;;;5093657;28;20451;-82
2023/11/19 03:27:36;;;;;;;0.30;0.20;;;9.30;99.90;;;;;;5093455;28;20450;-82
2023/11/19 03:30:04;;;;;;;0.73;0.30;;;9.30;99.90;;;;;;5093671;28;20889;-82
2023/11/19 03:32:31;;;;;;;0.30;0.20;;;9.30;99.90;;;;;;5093175;28;20475;-82
2023/11/19 03:34:59;;;;;;;0.30;0.30;;;9.30;99.90;;;;;;5093876;28;20444;-82
2023/11/19 03:37:27;;;;;;;0.30;0.23;;;9.20;99.90;;;;;;5117615;28;20436;-79
2023/11/19 03:39:54;;;;;;;0.30;0.30;;;9.20;99.90;;;;;;5093413;28;20440;-81
2023/11/19 03:42:21;;;;;;;0.40;0.30;;;9.20;99.90;;;;;;5093545;28;20513;-81
2023/11/19 03:44:49;;;;;;;0.30;0.20;;;9.20;99.90;;;;;;5093228;28;20448;-81
2023/11/19 03:47:16;;;;;;;0.30;0.30;;;9.30;99.90;;;;;;5093601;28;20552;-82
2023/11/19 03:49:43;;;;;;;0.30;0.30;;;9.20;99.90;;;;;;5093306;28;20506;-81
2023/11/19 03:52:10;;;;;;;0.30;0.27;;;9.30;99.90;;;;;;5093528;28;20474;-82
2023/11/19 03:54:38;;;;;;;0.40;0.30;;;9.30;99.90;;;;;;5093452;28;20451;-82
2023/11/19 03:57:05;;;;;;;0.30;0.20;;;9.30;99.90;;;;;;5093771;28;20444;-82
2023/11/19 03:59:33;;;;;;;0.30;0.30;;;9.30;99.90;;;;;;5093327;28;20444;-82
2023/11/19 04:02:00;;;;;;;0.40;0.30;;;9.30;99.90;;;;;;5093349;28;20472;-81
2023/11/19 04:04:27;;;;;;;0.30;0.20;;;9.30;99.90;;;;;;5093009;28;20948;-82
2023/11/19 04:06:54;;;;;;;0.30;0.30;;;9.30;99.90;;;;;;5093043;28;20921;-82
2023/11/19 04:09:21;;;;;;;0.30;0.20;;;9.30;99.90;;;;;;5093291;28;20835;-82
2023/11/19 04:11:49;;;;;;;0.40;0.40;;;9.30;99.90;;;;;;5094026;28;20460;-82
2023/11/19 04:14:18;;;;;;;0.30;0.30;;;9.30;99.90;;;;;;5097164;28;20458;-82
2023/11/19 04:16:45;;;;;;;0.30;0.30;;;9.40;99.90;;;;;;5097194;28;20452;-82
2023/11/19 04:19:11;;;;;;;0.40;0.40;;;9.40;99.90;;;;;;5096915;28;20456;-82
2023/11/19 04:21:40;;;;;;;0.30;0.30;;;9.40;99.90;;;;;;5096984;28;20805;-82
2023/11/19 04:24:08;;;;;;;0.30;0.30;;;9.40;99.90;;;;;;5096884;28;20443;-82
2023/11/19 04:26:36;;;;;;;0.30;0.20;;;9.50;99.90;;;;;;5096855;28;20443;-82
2023/11/19 04:29:05;;;;;;;0.30;0.20;;;9.40;99.90;;;;;;5096757;28;20448;-82
2023/11/19 04:31:32;;;;;;;0.30;0.20;;;9.50;99.90;;;;;;5096383;28;20537;-82
2023/11/19 04:34:00;;;;;;;0.30;0.20;;;9.50;99.90;;;;;;5096760;28;20431;-83
2023/11/19 04:36:27;;;;;;;0.30;0.20;;;9.50;99.90;;;;;;5096434;28;20825;-82
2023/11/19 04:38:54;;;;;;;0.30;0.23;;;9.50;99.90;;;;;;5096333;28;20478;-82
2023/11/19 04:41:20;;;;;;;0.30;0.20;;;9.50;99.90;;;;;;5096298;28;20439;-82
2023/11/19 04:43:47;;;;;;;0.30;0.30;;;9.50;99.90;;;;;;5096548;28;20470;-82
2023/11/19 04:46:15;;;;;;;4.00;0.30;;;9.50;99.90;;;;;;5096454;28;20814;-82
2023/11/19 04:48:42;;;;;;;0.30;0.20;;;9.50;99.90;;;;;;5096499;28;20444;-82
2023/11/19 04:51:10;;;;;;;0.30;0.20;;;9.50;99.90;;;;;;5096285;28;20479;-82
2023/11/19 04:53:36;;;;;;;0.30;0.20;;;9.60;99.90;;;;;;5096208;28;20468;-82
2023/11/19 04:56:09;;;;;;;0.30;0.30;;;9.60;99.90;;;;;;5096031;28;20963;-82
2023/11/19 04:58:37;;;;;;;0.30;0.30;;;9.60;99.90;;;;;;5096359;28;20428;-82
2023/11/19 05:01:04;;;;;;;0.30;0.20;;;9.60;99.90;;;;;;5096313;28;20870;-82
2023/11/19 05:03:32;;;;;;;0.30;0.20;;;9.60;99.90;;;;;;5096186;28;20463;-82
2023/11/19 05:05:59;;;;;;;0.30;0.30;;;9.60;99.90;;;;;;5096101;28;20792;-82
2023/11/19 05:08:26;;;;;;;0.30;0.20;;;9.60;99.90;;;;;;5096071;28;20479;-82
2023/11/19 05:10:53;;;;;;;0.30;0.20;;;9.60;99.90;;;;;;5096034;28;20617;-82
2023/11/19 05:13:19;;;;;;;0.30;0.20;;;9.60;99.90;;;;;;5095663;28;20960;-82
2023/11/19 05:15:46;;;;;;;0.30;0.20;;;9.50;99.90;;;;;;5095969;28;20440;-82
2023/11/19 05:18:13;;;;;;;0.30;0.30;;;9.60;99.90;;;;;;5095793;28;20465;-82
2023/11/19 05:20:41;;;;;;;0.30;0.30;;;9.70;99.90;;;;;;5095801;28;20443;-82
2023/11/19 05:23:08;;;;;;;0.30;0.20;;;9.70;99.90;;;;;;5094218;28;20493;-82
2023/11/19 05:25:35;;;;;;;0.30;0.30;;;9.60;99.90;;;;;;5095729;28;20439;-82
2023/11/19 05:28:01;;;;;;;0.30;0.23;;;9.70;99.90;;;;;;5095746;28;20451;-82
2023/11/19 05:30:28;;;;;;;0.30;0.30;;;9.60;99.90;;;;;;5095637;28;20484;-82
2023/11/19 05:32:55;;;;;;;0.30;0.30;;;9.70;99.90;;;;;;5119713;22;20488;-78
2023/11/19 05:35:22;;;;;;;0.30;0.20;;;9.70;99.90;;;;;;5098074;28;20820;-77
2023/11/19 05:37:50;;;;;;;0.30;0.30;;;9.70;99.90;;;;;;5097519;28;20450;-77
2023/11/19 05:40:17;;;;;;;0.30;0.30;;;9.70;99.90;;;;;;5097326;28;20437;-77
2023/11/19 05:42:44;;;;;;;0.30;0.20;;;9.70;99.90;;;;;;5097197;28;20478;-77
2023/11/19 05:45:13;;;;;;;0.30;0.30;;;9.70;99.90;;;;;;5096817;28;20451;-77
2023/11/19 05:47:39;;;;;;;0.40;0.30;;;9.70;99.90;;;;;;5096906;28;20932;-77
2023/11/19 05:50:07;;;;;;;0.30;0.20;;;9.70;99.90;;;;;;5096849;28;20454;-77
2023/11/19 05:52:34;;;;;;;0.30;0.30;;;9.70;99.90;;;;;;5097602;28;20807;-78
2023/11/19 05:55:03;;;;;;;0.40;0.30;;;9.70;99.90;;;;;;5097703;28;20443;-78
2023/11/19 05:57:30;;;;;;;0.40;0.33;;;9.70;99.90;;;;;;5097550;28;20479;-77
2023/11/19 05:59:58;;;;;;;0.30;0.30;;;9.70;99.90;;;;;;5097330;28;20432;-78
2023/11/19 06:02:27;;;;;;;0.30;0.20;;;9.70;99.90;;;;;;5096796;28;20986;-78
2023/11/19 06:04:53;;;;;;;0.30;0.20;;;9.70;99.90;;;;;;5098699;28;20451;-79
2023/11/19 06:07:20;;;;;;;0.47;0.47;;;9.70;99.90;;;;;;5104077;28;20447;-78
2023/11/19 06:09:47;;;;;;;0.30;0.27;;;9.70;99.90;;;;;;5102198;28;20444;-77
2023/11/19 06:12:15;;;;;;;0.30;0.20;;;9.70;99.90;;;;;;5103344;28;20498;-78
2023/11/19 06:14:42;;;;;;;0.30;0.30;;;9.70;99.90;;;;;;5100584;28;20443;-77
2023/11/19 06:17:11;;;;;;;0.30;0.30;;;9.70;99.90;;;;;;5097931;28;20455;-78
2023/11/19 06:19:37;;;;;;;0.80;0.50;;;9.80;99.90;;;;;;5096567;28;20448;-78
2023/11/19 06:22:04;;;;;;;0.30;0.20;;;9.80;99.90;;;;;;5096080;28;20435;-77
2023/11/19 06:24:31;;;;;;;0.30;0.20;;;9.70;99.90;;;;;;5095690;28;20443;-77
2023/11/19 06:26:58;;;;;;;0.40;0.30;;;9.70;99.90;;;;;;5095841;28;20458;-77
2023/11/19 06:29:26;;;;;;;0.30;0.20;;;9.70;99.90;;;;;;5095731;28;20444;-77
2023/11/19 06:31:52;;;;;;;0.30;0.30;;;9.80;99.90;;;;;;5094914;28;20487;-77
2023/11/19 06:34:19;;;;;;;0.43;0.40;;;9.90;99.90;;;;;;5094979;28;20926;-78
2023/11/19 06:36:46;;;;;;;0.30;0.20;;;9.80;99.90;;;;;;5095951;28;20455;-78
2023/11/19 06:39:13;;;;;;;0.30;0.20;;;9.80;99.90;;;;;;5097987;28;20444;-79
2023/11/19 06:41:39;;;;;;;0.40;0.40;;;9.80;99.90;;;;;;5097465;28;20469;-79
2023/11/19 06:44:06;;;;;;;0.30;0.30;;;9.80;99.90;;;;;;5098896;28;20466;-79
2023/11/19 06:46:35;;;;;;;0.30;0.30;;;9.80;99.90;;;;;;5098800;28;20450;-79
2023/11/19 06:49:02;;;;;;;0.30;0.20;;;9.80;99.90;;;;;;5098442;28;20448;-79
2023/11/19 06:51:33;;;;;;;0.30;0.20;;;9.90;99.90;;;;;;5097895;28;21021;-79
2023/11/19 06:54:00;;;;;;;0.30;0.30;;;9.80;99.90;;;;;;5099315;28;20991;-79
2023/11/19 06:56:27;;;;;;;0.30;0.20;;;9.80;99.90;;;;;;5100533;28;20510;-79
2023/11/19 06:58:54;;;;;;;0.30;0.30;;;9.90;99.90;;;;;;5101311;28;20452;-80
2023/11/19 07:01:21;;;;;;;0.30;0.30;;;9.80;99.90;;;;;;5099352;28;20978;-77
2023/11/19 07:03:51;;;;;;;0.30;0.20;;;9.80;99.90;;;;;;5096164;28;20460;-78
2023/11/19 07:06:18;;;;;;;0.30;0.27;;;9.90;99.90;;;;;;5096297;28;20451;-77
2023/11/19 07:08:45;;;;;;;0.30;0.20;;;9.80;99.90;;;;;;5095607;28;20971;-79
2023/11/19 07:11:13;;;;;;;0.30;0.30;;;9.80;99.90;;;;;;5095361;28;20472;-77
2023/11/19 07:13:41;;;;;;;0.30;0.30;;;9.90;99.90;;;;;;5093641;28;20479;-77
2023/11/19 07:16:10;;;;;;;0.30;0.30;;;9.90;99.90;;;;;;5093910;28;20467;-77
2023/11/19 07:18:37;;;;;;;0.30;0.20;;;9.90;99.90;;;;;;5094235;28;20858;-77
2023/11/19 07:21:06;;;;;;;0.30;0.20;;;9.90;99.90;;;;;;5093615;28;20436;-77
2023/11/19 07:23:33;;;;;;;0.30;0.20;;;9.90;99.90;;;;;;5093497;28;20471;-77
2023/11/19 07:25:59;;;;;;;0.30;0.30;;;9.90;99.90;;;;;;5093317;28;20473;-77
2023/11/19 07:28:28;;;;;;;0.40;0.30;;;9.90;99.90;;;;;;5093515;28;20455;-77
2023/11/19 07:30:56;;;;;;;0.30;0.20;;;9.90;99.90;;;;;;5094980;28;20472;-77
2023/11/19 07:33:22;;;;;;;0.30;0.30;;;10.00;99.90;;;;;;5094643;28;20487;-77
2023/11/19 07:35:49;;;;;;;0.30;0.20;;;10.00;99.90;;;;;;5095581;28;20447;-79
2023/11/19 07:38:18;;;;;;;0.30;0.20;;;10.00;99.90;;;;;;5097824;28;20895;-79
2023/11/19 07:40:44;;;;;;;0.30;0.30;;;10.00;99.90;;;;;;5098240;28;20496;-79
2023/11/19 07:43:11;;;;;;;0.30;0.30;;;10.10;99.90;;;;;;5098125;28;20468;-80
2023/11/19 07:45:38;;;;;;;0.30;0.20;;;10.10;99.90;;;;;;5098805;28;20462;-79
2023/11/19 07:48:06;;;;;;;0.30;0.30;;;10.10;99.90;;;;;;5101215;28;20458;-80
2023/11/19 07:50:33;;;;;;;0.30;0.30;;;10.10;99.90;;;;;;5101637;28;20475;-80
2023/11/19 07:53:00;;;;;;;0.40;0.30;;;10.00;99.90;;;;;;5098319;28;20463;-77
2023/11/19 07:55:28;;;;;;;0.30;0.30;;;10.10;99.90;;;;;;5097961;28;20491;-77
2023/11/19 07:57:55;;;;;;;0.30;0.23;;;10.10;99.90;;;;;;5099136;28;20947;-77
2023/11/19 08:00:22;;;;;;;0.40;0.30;;;10.10;99.90;;;;;;5099907;28;20432;-78
2023/11/19 08:02:49;;;;;;;0.30;0.30;;;10.10;99.90;;;;;;5099802;28;20832;-78
2023/11/19 08:05:15;;;;;;;0.30;0.30;;;10.10;99.90;;;;;;5099628;28;20501;-78
2023/11/19 08:07:42;;;;;;;0.87;0.30;;;10.20;99.90;;;;;;5099158;28;20932;-78
2023/11/19 08:10:10;;;;;;;0.30;0.30;;;10.30;99.90;;;;;;5100999;28;20452;-78
2023/11/19 08:12:39;;;;;;;0.30;0.30;;;10.20;99.90;;;;;;5099272;28;20503;-78
2023/11/19 08:15:06;;;;;;;0.60;0.30;;;10.20;99.90;;;;;;5099461;28;20444;-78
2023/11/19 08:17:33;;;;;;;0.30;0.30;;;10.20;99.90;;;;;;5099672;28;20787;-78
2023/11/19 08:20:01;;;;;;;0.30;0.30;;;10.20;99.90;;;;;;5099436;28;20444;-79
2023/11/19 08:22:27;;;;;;;0.30;0.30;;;10.30;99.90;;;;;;5099803;28;20456;-78
2023/11/19 08:24:54;;;;;;;0.30;0.30;;;10.30;99.90;;;;;;5101440;28;20444;-79
2023/11/19 08:27:26;;;;;;;0.30;0.30;;;10.30;99.90;;;;;;5098581;28;20450;-78
2023/11/19 08:29:55;;;;;;;0.50;0.30;;;10.30;99.90;;;;;;5098646;28;20428;-78
2023/11/19 08:32:22;;;;;;;0.37;0.30;;;10.30;99.90;;;;;;5098469;28;20585;-78
2023/11/19 08:34:48;;;;;;;0.30;0.30;;;10.40;99.90;;;;;;5098688;28;20904;-78
2023/11/19 08:37:17;;;;;;;0.47;0.30;;;10.40;99.90;;;;;;5098506;28;20444;-78
2023/11/19 08:39:44;;;;;;;0.80;0.40;;;12.30;99.90;;;;;;5098526;28;20503;-78
2023/11/19 08:42:11;;;;;;;6.03;0.30;;;11.00;99.90;;;;;;5098087;28;20466;-79
2023/11/19 08:44:38;;;;;;;0.30;0.30;;;11.40;99.90;;;;;;5106605;28;20440;-79
2023/11/19 08:47:06;;;;;;;0.30;0.30;;;11.30;99.90;;;;;;5107886;28;20446;-79
2023/11/19 08:49:33;;;;;;;0.40;0.30;;;11.40;99.90;;;;;;5107418;28;20480;-80
2023/11/19 08:51:59;;;;;;;0.40;0.30;;;12.00;99.90;;;;;;5107132;28;20486;-80
2023/11/19 08:54:26;;;;;;;0.30;0.20;;;12.60;99.90;;;;;;5101342;28;20459;-80
2023/11/19 08:56:53;;;;;;;0.30;0.30;;;12.60;99.90;;;;;;5100427;28;20967;-79
2023/11/19 08:59:20;;;;;;;0.30;0.30;;;12.70;99.90;;;;;;5099984;28;20468;-79
2023/11/19 09:01:46;;;;;;;0.40;0.30;;;13.20;99.90;;;;;;5099923;28;20451;-79
2023/11/19 09:04:15;;;;;;;0.40;0.37;;;14.00;99.90;;;;;;5100033;28;20440;-79
2023/11/19 09:06:43;;;;;;;0.30;0.30;;;14.60;99.90;;;;;;5099550;28;20485;-78
2023/11/19 09:09:10;;;;;;;0.50;0.40;;;14.50;99.90;;;;;;5100349;28;20857;-78
2023/11/19 09:11:37;;;;;;;0.40;0.30;;;14.10;99.90;;;;;;5098610;28;20486;-79
2023/11/19 09:14:05;;;;;;;0.33;0.33;;;14.20;99.90;;;;;;5099039;28;20462;-78
2023/11/19 09:16:32;;;;;;;1.33;0.40;;;14.70;99.90;;;;;;5098572;28;20452;-79
2023/11/19 09:18:59;;;;;;;0.40;0.40;;;14.70;99.90;;;;;;5098561;28;20452;-78
2023/11/19 09:21:27;;;;;;;0.47;0.37;;;14.60;99.90;;;;;;5098468;28;20444;-78
2023/11/19 09:23:54;;;;;;;0.60;0.40;;;14.40;99.90;;;;;;5098289;28;20468;-78
2023/11/19 09:26:20;;;;;;;0.37;0.30;;;14.10;99.90;;;;;;5099155;28;20824;-79
2023/11/19 09:28:47;;;;;;;0.40;0.30;;;13.80;99.90;;;;;;5098383;28;20441;-79
2023/11/19 09:31:14;;;;;;;0.40;0.37;;;13.60;99.90;;;;;;5097729;28;20459;-78
2023/11/19 09:33:41;;;;;;;0.30;0.30;;;13.90;99.90;;;;;;5097702;28;20475;-78
2023/11/19 09:36:08;;;;;;;1.57;0.30;;;14.10;99.90;;;;;;5097507;28;20497;-78
2023/11/19 09:38:37;;;;;;;0.30;0.30;;;14.00;99.90;;;;;;5096955;28;20439;-78
2023/11/19 09:41:08;;;;;;;0.30;0.30;;;14.00;99.90;;;;;;5097479;28;20455;-78
2023/11/19 09:43:35;;;;;;;0.60;0.60;;;13.80;99.90;;;;;;5097200;28;20460;-78
2023/11/19 09:46:06;;;;;;;0.40;0.30;;;13.70;99.90;;;;;;5097109;28;20451;-78
2023/11/19 09:48:34;;;;;;;0.60;0.30;;;13.50;99.90;;;;;;5097985;28;20487;-78
2023/11/19 09:51:02;;;;;;;0.30;0.30;;;13.10;99.90;;;;;;5096782;28;20948;-78
2023/11/19 09:53:28;;;;;;;0.50;0.40;;;13.00;99.90;;;;;;5097346;28;20491;-78
2023/11/19 09:55:56;;;;;;;0.50;0.30;;;13.00;99.90;;;;;;5097214;28;20432;-79
2023/11/19 09:58:23;;;;;;;0.47;0.40;;;12.80;99.90;;;;;;5097256;28;20451;-78
2023/11/19 10:00:51;;;;;;;0.30;0.30;;;12.80;99.90;;;;;;5096933;28;20486;-78
2023/11/19 10:03:19;;;;;;;0.40;0.40;;;12.70;99.90;;;;;;5096872;28;20492;-78
2023/11/19 10:05:45;;;;;;;0.40;0.30;;;12.60;99.90;;;;;;5097144;28;20447;-78
2023/11/19 10:08:13;;;;;;;0.93;0.30;;;12.60;99.90;;;;;;5096778;28;20440;-78
2023/11/19 10:10:40;;;;;;;0.30;0.30;;;12.70;99.90;;;;;;5096399;28;20487;-78
2023/11/19 10:13:08;;;;;;;0.40;0.30;;;13.00;99.90;;;;;;5096447;28;21000;-78
2023/11/19 10:15:38;;;;;;;0.60;0.33;;;13.00;99.90;;;;;;5096805;28;20932;-78
2023/11/19 10:18:05;;;;;;;0.33;0.33;;;13.10;99.90;;;;;;5096511;28;20463;-78
2023/11/19 10:20:37;;;;;;;0.37;0.30;;;13.10;99.90;;;;;;5096248;28;20940;-78
2023/11/19 10:23:03;;;;;;;0.30;0.30;;;13.10;99.90;;;;;;5096780;28;20514;-78
2023/11/19 10:25:31;;;;;;;1.53;0.30;;;13.10;99.90;;;;;;5096553;28;20505;-78
2023/11/19 10:27:58;;;;;;;0.40;0.33;;;13.10;99.90;;;;;;5097037;28;20535;-78
2023/11/19 10:30:27;;;;;;;0.77;0.50;;;13.40;99.90;;;;;;5097021;28;20514;-79
2023/11/19 10:33:07;;;;;;;0.40;0.30;;;13.50;99.90;;;;;;5096448;28;20523;-79
2023/11/19 10:35:34;;;;;;;0.50;0.40;;;13.60;99.90;;;;;;5096683;28;20467;-78
2023/11/19 10:38:02;;;;;;;0.30;0.30;;;13.60;99.90;;;;;;5096711;28;20452;-78
2023/11/19 10:40:41;;;;;;;0.50;0.30;;;13.50;99.90;;;;;;5095723;28;20451;-78
2023/11/19 10:43:08;;;;;;;0.40;0.30;;;13.50;99.90;;;;;;5096456;28;20520;-78
2023/11/19 10:45:37;;;;;;;0.40;0.30;;;13.60;99.90;;;;;;5095532;28;20428;-78
2023/11/19 10:48:06;;;;;;;0.50;0.30;;;13.80;99.90;;;;;;5096733;28;20454;-78
2023/11/19 10:50:33;;;;;;;0.40;0.40;;;13.90;99.90;;;;;;5095463;28;20448;-78
2023/11/19 10:53:01;;;;;;;0.30;0.30;;;13.90;99.90;;;;;;5095632;28;20488;-78
2023/11/19 10:55:30;;;;;;;0.30;0.27;;;13.90;99.90;;;;;;5095305;28;20443;-78
2023/11/19 10:58:01;;;;;;;0.40;0.30;;;13.80;99.90;;;;;;5095975;28;20489;-80
2023/11/19 11:00:31;;;;;;;0.40;0.30;;;13.70;99.90;;;;;;5096945;28;20565;-79
2023/11/19 11:03:02;;;;;;;0.60;0.40;;;13.70;99.90;;;;;;5095862;28;20460;-79
2023/11/19 11:05:32;;;;;;;0.30;0.27;;;13.80;99.90;;;;;;5096628;28;20837;-79
2023/11/19 11:08:00;;;;;;;0.40;0.30;;;13.80;99.90;;;;;;5095994;28;20427;-79
2023/11/19 11:10:29;;;;;;;0.30;0.30;;;13.80;99.90;;;;;;5095924;28;20454;-79
2023/11/19 11:13:00;;;;;;;0.30;0.30;;;13.80;99.90;;;;;;5095755;28;20479;-79
2023/11/19 11:15:29;;;;;;;4.03;0.40;;;13.90;99.90;;;;;;5096106;28;20428;-78
2023/11/19 11:18:02;;;;;;;0.30;0.30;;;13.90;99.90;;;;;;5095142;28;20855;-79
2023/11/19 11:20:30;;;;;;;0.30;0.30;;;14.80;99.90;;;;;;5095270;28;20489;-78
2023/11/19 11:23:13;;;;;;;1.03;0.37;;;13.90;99.90;;;;;;5094899;28;20464;-78
2023/11/19 11:25:53;;;;;;;0.30;0.27;;;13.90;99.90;;;;;;5095793;28;20412;-79
2023/11/19 11:28:28;;;;;;;0.40;0.40;;;13.80;99.90;;;;;;5102534;28;20901;-79
2023/11/19 11:31:16;;;;;;;0.30;0.30;;;13.80;99.90;;;;;;5104822;28;20419;-79
2023/11/19 11:34:07;;;;;;;0.30;0.30;;;13.70;99.90;;;;;;5079630;22;20489;-80
2023/11/19 11:36:39;;;;;;;0.40;0.40;;;13.60;99.90;;;;;;5053652;28;20480;-81
2023/11/19 11:39:09;;;;;;;0.30;0.30;;;13.60;99.90;;;;;;5053660;28;20920;-81
2023/11/19 11:41:35;;;;;;;1.20;0.43;;;13.50;99.90;;;;;;5053671;28;20446;-80
2023/11/19 11:44:02;;;;;;;0.40;0.30;;;13.50;99.90;;;;;;5053977;28;20468;-81
2023/11/19 11:46:53;;;;;;;5.03;0.40;;;13.50;99.90;;;;;;5053689;28;20456;-81
2023/11/19 11:49:29;;;;;;;0.30;0.30;;;13.40;99.90;;;;;;5053574;28;20430;-81
2023/11/19 11:52:04;;;;;;;0.30;0.30;;;13.40;99.90;;;;;;5053923;28;20440;-81
2023/11/19 11:54:32;;;;;;;0.33;0.30;;;13.40;99.90;;;;;;5053436;28;20453;-80
2023/11/19 11:57:12;;;;;;;0.70;0.40;;;13.40;99.90;;;;;;5053625;28;20430;-80
2023/11/19 11:59:49;;;;;;;0.30;0.30;;;13.30;99.90;;;;;;5053448;28;20445;-80
2023/11/19 12:02:18;;;;;;;0.30;0.30;;;13.30;99.90;;;;;;5053429;28;20432;-80
2023/11/19 12:04:49;;;;;;;0.30;0.30;;;13.30;99.90;;;;;;5053444;28;20446;-80
2023/11/19 12:07:19;;;;;;;0.30;0.30;;;13.30;99.90;;;;;;5053253;28;20444;-80
2023/11/19 12:09:49;;;;;;;0.30;0.23;;;13.20;99.90;;;;;;5053264;28;20456;-80
2023/11/19 12:12:22;;;;;;;0.40;0.30;;;13.30;99.90;;;;;;5053205;28;20477;-80
2023/11/19 12:15:02;;;;;;;0.30;0.30;;;13.30;99.90;;;;;;5053197;28;20444;-80
2023/11/19 12:17:49;;;;;;;0.30;0.30;;;13.40;99.90;;;;;;5053815;28;20445;-80
2023/11/19 12:20:18;;;;;;;0.40;0.30;;;13.40;99.90;;;;;;5052787;28;20981;-80
2023/11/19 12:22:46;;;;;;;0.30;0.30;;;13.40;99.90;;;;;;5053069;28;20461;-80
2023/11/19 12:25:14;;;;;;;0.50;0.30;;;13.50;99.90;;;;;;5053082;28;20449;-80
2023/11/19 12:27:42;;;;;;;0.30;0.20;;;13.50;99.90;;;;;;5053005;28;20449;-80
2023/11/19 12:30:09;;;;;;;0.60;0.30;;;13.60;99.90;;;;;;5052764;28;20549;-79
2023/11/19 12:32:40;;;;;;;0.30;0.30;;;13.70;99.90;;;;;;5053433;28;20495;-79
2023/11/19 12:35:11;;;;;;;0.40;0.40;;;13.80;99.90;;;;;;5056467;28;20480;-79
2023/11/19 12:37:42;;;;;;;0.30;0.30;;;13.80;99.90;;;;;;5056656;28;20422;-79
2023/11/19 12:40:14;;;;;;;0.30;0.20;;;13.90;99.90;;;;;;5056233;28;20837;-79
2023/11/19 12:42:41;;;;;;;0.43;0.43;;;13.90;99.90;;;;;;5056493;28;20454;-79
2023/11/19 12:45:09;;;;;;;0.30;0.30;;;13.90;99.90;;;;;;5056487;28;20451;-79
2023/11/19 12:47:35;;;;;;;0.50;0.40;;;13.90;99.90;;;;;;5056648;28;20499;-79
2023/11/19 12:50:03;;;;;;;0.87;0.30;;;13.80;99.90;;;;;;5056168;28;20432;-79
2023/11/19 12:52:30;;;;;;;1.63;0.30;;;13.80;99.90;;;;;;5055878;28;20575;-79
2023/11/19 12:54:58;;;;;;;0.30;0.30;;;13.70;99.90;;;;;;5056328;28;20836;-79
2023/11/19 12:57:38;;;;;;;0.30;0.30;;;13.50;99.90;;;;;;5055860;28;20445;-80